createdAt,value
2018-07-28T00:00:36.918Z,1002.78
2018-07-28T00:01:36.948Z,1002.79
2018-07-28T00:02:36.976Z,1002.77
2018-07-28T00:03:37.001Z,1002.78
2018-07-28T00:04:37.028Z,1002.71
2018-07-28T00:05:37.056Z,1002.68
2018-07-28T00:06:37.087Z,1002.66
2018-07-28T00:07:37.111Z,1002.65
2018-07-28T00:08:37.142Z,1002.67
2018-07-28T00:09:37.169Z,1002.64
2018-07-28T00:10:37.198Z,1002.63
2018-07-28T00:11:37.225Z,1002.67
2018-07-28T00:12:37.253Z,1002.63
2018-07-28T00:13:37.278Z,1002.61
2018-07-28T00:14:37.311Z,1002.59
2018-07-28T00:15:37.333Z,1002.59
2018-07-28T00:16:37.362Z,1002.58
2018-07-28T00:17:37.391Z,1002.57
2018-07-28T00:18:37.419Z,1002.59
2018-07-28T00:19:37.448Z,1002.61
2018-07-28T00:20:37.470Z,1002.58
2018-07-28T00:21:37.501Z,1002.61
2018-07-28T00:22:37.530Z,1002.60
2018-07-28T00:23:37.558Z,1002.64
2018-07-28T00:24:37.581Z,1002.66
2018-07-28T00:25:37.609Z,1002.65
2018-07-28T00:26:37.640Z,1002.64
2018-07-28T00:27:37.667Z,1002.63
2018-07-28T00:28:37.694Z,1002.63
2018-07-28T00:29:37.720Z,1002.65
2018-07-28T00:30:37.748Z,1002.61
2018-07-28T00:31:37.779Z,1002.63
2018-07-28T00:32:37.801Z,1002.60
2018-07-28T00:33:37.834Z,1002.62
2018-07-28T00:34:37.857Z,1002.60
2018-07-28T00:35:37.888Z,1002.60
2018-07-28T00:36:37.912Z,1002.60
2018-07-28T00:37:37.940Z,1002.57
2018-07-28T00:38:37.972Z,1002.56
2018-07-28T00:39:38.000Z,1002.55
2018-07-28T00:40:38.022Z,1002.51
2018-07-28T00:41:38.057Z,1002.54
2018-07-28T00:42:38.087Z,1002.53
2018-07-28T00:43:38.108Z,1002.50
2018-07-28T00:44:38.133Z,1002.52
2018-07-28T00:45:38.159Z,1002.52
2018-07-28T00:46:38.190Z,1002.52
2018-07-28T00:47:38.215Z,1002.48
2018-07-28T00:48:38.244Z,1002.44
2018-07-28T00:49:38.269Z,1002.40
2018-07-28T00:50:38.298Z,1002.40
2018-07-28T00:51:38.328Z,1002.42
2018-07-28T00:52:38.351Z,1002.39
2018-07-28T00:53:38.382Z,1002.39
2018-07-28T00:54:38.409Z,1002.36
2018-07-28T00:55:38.437Z,1002.36
2018-07-28T00:56:38.463Z,1002.35
2018-07-28T00:57:38.490Z,1002.37
2018-07-28T00:58:38.516Z,1002.35
2018-07-28T00:59:38.544Z,1002.31
2018-07-28T01:00:38.572Z,1002.35
2018-07-28T01:01:38.597Z,1002.33
2018-07-28T01:02:38.625Z,1002.34
2018-07-28T01:03:38.653Z,1002.28
2018-07-28T01:04:38.682Z,1002.24
2018-07-28T01:05:38.708Z,1002.25
2018-07-28T01:06:38.737Z,1002.22
2018-07-28T01:07:38.763Z,1002.27
2018-07-28T01:08:38.799Z,1002.23
2018-07-28T01:09:38.818Z,1002.24
2018-07-28T01:10:38.846Z,1002.20
2018-07-28T01:11:38.873Z,1002.20
2018-07-28T01:12:38.899Z,1002.20
2018-07-28T01:13:38.928Z,1002.20
2018-07-28T01:14:38.954Z,1002.19
2018-07-28T01:15:38.979Z,1002.18
2018-07-28T01:16:39.009Z,1002.22
2018-07-28T01:17:39.034Z,1002.17
2018-07-28T01:18:39.062Z,1002.15
2018-07-28T01:19:39.091Z,1002.14
2018-07-28T01:20:39.116Z,1002.12
2018-07-28T01:21:39.145Z,1002.10
2018-07-28T01:22:39.172Z,1002.10
2018-07-28T01:23:39.196Z,1002.07
2018-07-28T01:24:39.222Z,1002.04
2018-07-28T01:25:39.252Z,1002.04
2018-07-28T01:26:39.277Z,1002.05
2018-07-28T01:27:39.305Z,1002.03
2018-07-28T01:28:39.334Z,1002.02
2018-07-28T01:29:39.359Z,1002.00
2018-07-28T01:30:39.388Z,1002.03
2018-07-28T01:31:39.417Z,1002.04
2018-07-28T01:32:39.441Z,1002.01
2018-07-28T01:33:39.469Z,1001.99
2018-07-28T01:34:39.496Z,1001.99
2018-07-28T01:35:39.526Z,1001.97
2018-07-28T01:36:39.548Z,1001.98
2018-07-28T01:37:39.578Z,1001.96
2018-07-28T01:38:39.603Z,1001.94
2018-07-28T01:39:39.633Z,1001.91
2018-07-28T01:40:39.656Z,1001.94
2018-07-28T01:41:39.687Z,1001.92
2018-07-28T01:42:39.715Z,1001.91
2018-07-28T01:43:39.742Z,1001.86
2018-07-28T01:44:39.766Z,1001.85
2018-07-28T01:45:39.794Z,1001.85
2018-07-28T01:46:39.824Z,1001.82
2018-07-28T01:47:39.852Z,1001.79
2018-07-28T01:48:39.875Z,1001.77
2018-07-28T01:49:39.901Z,1001.77
2018-07-28T01:50:39.928Z,1001.72
2018-07-28T01:51:39.957Z,1001.74
2018-07-28T01:52:39.985Z,1001.75
2018-07-28T01:53:40.012Z,1001.73
2018-07-28T01:54:40.037Z,1001.70
2018-07-28T01:55:40.067Z,1001.67
2018-07-28T01:56:40.090Z,1001.64
2018-07-28T01:57:40.118Z,1001.60
2018-07-28T01:58:40.146Z,1001.59
2018-07-28T01:59:40.225Z,1001.61
2018-07-28T02:00:40.200Z,1001.56
2018-07-28T02:01:40.229Z,1001.55
2018-07-28T02:02:40.253Z,1001.52
2018-07-28T02:03:40.282Z,1001.54
2018-07-28T02:04:40.309Z,1001.55
2018-07-28T02:05:40.333Z,1001.50
2018-07-28T02:06:40.360Z,1001.51
2018-07-28T02:07:40.390Z,1001.51
2018-07-28T02:08:40.416Z,1001.46
2018-07-28T02:09:40.444Z,1001.43
2018-07-28T02:10:40.469Z,1001.44
2018-07-28T02:11:40.499Z,1001.43
2018-07-28T02:12:40.525Z,1001.39
2018-07-28T02:13:40.551Z,1001.34
2018-07-28T02:14:40.579Z,1001.36
2018-07-28T02:15:40.604Z,1001.32
2018-07-28T02:16:40.629Z,1001.27
2018-07-28T02:17:40.659Z,1001.26
2018-07-28T02:18:40.687Z,1001.25
2018-07-28T02:19:40.712Z,1001.27
2018-07-28T02:20:40.737Z,1001.22
2018-07-28T02:21:40.766Z,1001.23
2018-07-28T02:22:40.793Z,1001.20
2018-07-28T02:23:40.822Z,1001.19
2018-07-28T02:24:40.846Z,1001.17
2018-07-28T02:25:40.875Z,1001.13
2018-07-28T02:26:40.903Z,1001.11
2018-07-28T02:27:40.928Z,1001.14
2018-07-28T02:28:40.955Z,1001.10
2018-07-28T02:29:40.981Z,1001.09
2018-07-28T02:30:41.009Z,1001.07
2018-07-28T02:31:41.035Z,1001.09
2018-07-28T02:32:41.061Z,1001.05
2018-07-28T02:33:41.089Z,1001.03
2018-07-28T02:34:41.117Z,1001.07
2018-07-28T02:35:41.143Z,1001.04
2018-07-28T02:36:41.168Z,1001.04
2018-07-28T02:37:41.193Z,1000.99
2018-07-28T02:38:41.224Z,1001.02
2018-07-28T02:39:41.250Z,1001.00
2018-07-28T02:40:41.277Z,1000.94
2018-07-28T02:41:41.300Z,1000.95
2018-07-28T02:42:41.329Z,1000.95
2018-07-28T02:43:41.355Z,1000.99
2018-07-28T02:44:41.381Z,1000.94
2018-07-28T02:45:41.408Z,1000.94
2018-07-28T02:46:41.437Z,1000.94
2018-07-28T02:47:41.467Z,1000.94
2018-07-28T02:48:41.493Z,1000.90
2018-07-28T02:49:41.517Z,1000.87
2018-07-28T02:50:41.542Z,1000.87
2018-07-28T02:51:41.567Z,1000.83
2018-07-28T02:52:41.600Z,1000.76
2018-07-28T02:53:41.622Z,1000.75
2018-07-28T02:54:41.648Z,1000.72
2018-07-28T02:55:41.677Z,1000.69
2018-07-28T02:56:41.699Z,1000.70
2018-07-28T02:57:41.728Z,1000.65
2018-07-28T02:58:41.761Z,1000.62
2018-07-28T02:59:41.781Z,1000.63
2018-07-28T03:00:41.806Z,1000.60
2018-07-28T03:01:41.834Z,1000.65
2018-07-28T03:02:41.862Z,1000.60
2018-07-28T03:03:41.886Z,1000.61
2018-07-28T03:04:41.914Z,1000.58
2018-07-28T03:05:41.938Z,1000.56
2018-07-28T03:06:41.967Z,1000.59
2018-07-28T03:07:41.994Z,1000.59
2018-07-28T03:08:42.021Z,1000.59
2018-07-28T03:09:42.046Z,1000.59
2018-07-28T03:10:42.073Z,1000.56
2018-07-28T03:11:42.100Z,1000.57
2018-07-28T03:12:42.126Z,1000.60
2018-07-28T03:13:42.157Z,1000.58
2018-07-28T03:14:42.177Z,1000.56
2018-07-28T03:15:42.204Z,1000.55
2018-07-28T03:16:42.232Z,1000.54
2018-07-28T03:17:42.258Z,1000.52
2018-07-28T03:18:42.282Z,1000.53
2018-07-28T03:19:42.312Z,1000.53
2018-07-28T03:20:42.335Z,1000.48
2018-07-28T03:21:42.361Z,1000.48
2018-07-28T03:22:42.638Z,1000.48
2018-07-28T03:23:42.413Z,1000.56
2018-07-28T03:24:42.443Z,1000.54
2018-07-28T03:25:42.467Z,1000.55
2018-07-28T03:26:42.496Z,1000.56
2018-07-28T03:27:42.524Z,1000.52
2018-07-28T03:28:42.547Z,1000.55
2018-07-28T03:29:43.124Z,1000.55
2018-07-28T03:30:42.601Z,1000.53
2018-07-28T03:31:42.628Z,1000.55
2018-07-28T03:32:42.650Z,1000.57
2018-07-28T03:33:42.679Z,1000.60
2018-07-28T03:34:42.706Z,1000.55
2018-07-28T03:35:42.731Z,1000.52
2018-07-28T03:36:42.757Z,1000.51
2018-07-28T03:37:42.786Z,1000.51
2018-07-28T03:38:42.811Z,1000.54
2018-07-28T03:39:42.839Z,1000.56
2018-07-28T03:40:42.862Z,1000.57
2018-07-28T03:41:42.888Z,1000.62
2018-07-28T03:42:42.918Z,1000.60
2018-07-28T03:43:42.942Z,1000.53
2018-07-28T03:44:42.968Z,1000.50
2018-07-28T03:45:42.996Z,1000.53
2018-07-28T03:46:43.025Z,1000.56
2018-07-28T03:47:43.050Z,1000.52
2018-07-28T03:48:43.073Z,1000.49
2018-07-28T03:49:43.104Z,1000.49
2018-07-28T03:50:43.128Z,1000.51
2018-07-28T03:51:43.154Z,1000.52
2018-07-28T03:52:43.177Z,1000.54
2018-07-28T03:53:43.205Z,1000.50
2018-07-28T03:54:43.233Z,1000.48
2018-07-28T03:55:43.256Z,1000.48
2018-07-28T03:56:43.282Z,1000.51
2018-07-28T03:57:43.312Z,1000.44
2018-07-28T03:58:43.337Z,1000.41
2018-07-28T03:59:43.363Z,1000.43
2018-07-28T04:00:43.388Z,1000.37
2018-07-28T04:01:43.415Z,1000.36
2018-07-28T04:02:43.441Z,1000.34
2018-07-28T04:03:43.467Z,1000.27
2018-07-28T04:04:43.499Z,1000.33
2018-07-28T04:05:43.522Z,1000.30
2018-07-28T04:06:43.544Z,1000.30
2018-07-28T04:07:43.572Z,1000.33
2018-07-28T04:08:43.597Z,1000.34
2018-07-28T04:09:43.622Z,1000.32
2018-07-28T04:10:43.653Z,1000.31
2018-07-28T04:11:43.675Z,1000.27
2018-07-28T04:12:43.701Z,1000.26
2018-07-28T04:13:43.730Z,1000.25
2018-07-28T04:14:43.756Z,1000.24
2018-07-28T04:15:43.783Z,1000.24
2018-07-28T04:16:43.807Z,1000.21
2018-07-28T04:17:43.831Z,1000.17
2018-07-28T04:18:43.861Z,1000.25
2018-07-28T04:19:43.884Z,1000.25
2018-07-28T04:20:43.912Z,1000.31
2018-07-28T04:21:43.937Z,1000.41
2018-07-28T04:22:43.963Z,1000.56
2018-07-28T04:23:43.987Z,1000.69
2018-07-28T04:24:44.013Z,1000.80
2018-07-28T04:25:44.043Z,1000.79
2018-07-28T04:26:44.067Z,1000.78
2018-07-28T04:27:44.093Z,1000.69
2018-07-28T04:28:44.121Z,1000.64
2018-07-28T04:29:44.145Z,1000.63
2018-07-28T04:30:44.170Z,1000.63
2018-07-28T04:31:44.198Z,1000.60
2018-07-28T04:32:44.225Z,1000.67
2018-07-28T04:33:44.250Z,1000.63
2018-07-28T04:34:44.273Z,1000.64
2018-07-28T04:35:44.300Z,1000.63
2018-07-28T04:36:44.325Z,1000.75
2018-07-28T04:37:44.351Z,1000.85
2018-07-28T04:38:44.380Z,1000.81
2018-07-28T04:39:44.403Z,1000.69
2018-07-28T04:40:44.429Z,1000.74
2018-07-28T04:41:44.456Z,1000.80
2018-07-28T04:42:44.483Z,1000.86
2018-07-28T04:43:44.512Z,1000.92
2018-07-28T04:44:44.536Z,1000.89
2018-07-28T04:45:44.559Z,1000.72
2018-07-28T04:46:44.586Z,1000.54
2018-07-28T04:47:44.612Z,1000.50
2018-07-28T04:48:44.639Z,1000.49
2018-07-28T04:49:44.664Z,1000.68
2018-07-28T04:50:44.693Z,1000.97
2018-07-28T04:51:44.723Z,1001.07
2018-07-28T04:52:44.742Z,1001.02
2018-07-28T04:53:44.768Z,1000.75
2018-07-28T04:54:44.797Z,1000.63
2018-07-28T04:55:44.820Z,1000.56
2018-07-28T04:56:44.849Z,1000.68
2018-07-28T04:57:44.872Z,1000.93
2018-07-28T04:58:44.899Z,1001.10
2018-07-28T04:59:44.927Z,1001.08
2018-07-28T05:00:44.951Z,1000.90
2018-07-28T05:01:44.977Z,1000.66
2018-07-28T05:02:45.003Z,1000.72
2018-07-28T05:03:45.031Z,1000.82
2018-07-28T05:04:45.055Z,1000.93
2018-07-28T05:05:45.085Z,1000.96
2018-07-28T05:06:45.108Z,1000.83
2018-07-28T05:07:45.171Z,1000.68
2018-07-28T05:08:45.162Z,1000.67
2018-07-28T05:09:45.186Z,1000.71
2018-07-28T05:10:45.218Z,1000.72
2018-07-28T05:11:45.239Z,1000.72
2018-07-28T05:12:45.271Z,1000.70
2018-07-28T05:13:45.293Z,1000.71
2018-07-28T05:14:45.316Z,1000.70
2018-07-28T05:15:45.343Z,1000.59
2018-07-28T05:16:45.471Z,1000.47
2018-07-28T05:17:45.397Z,1000.35
2018-07-28T05:18:45.422Z,1000.29
2018-07-28T05:19:45.449Z,1000.31
2018-07-28T05:20:45.473Z,1000.45
2018-07-28T05:21:45.503Z,1000.56
2018-07-28T05:22:45.526Z,1000.62
2018-07-28T05:23:45.571Z,1000.66
2018-07-28T05:24:45.580Z,1000.65
2018-07-28T05:25:45.608Z,1000.61
2018-07-28T05:26:45.632Z,1000.55
2018-07-28T05:27:45.657Z,1000.47
2018-07-28T05:28:45.682Z,1000.41
2018-07-28T05:29:45.807Z,1000.40
2018-07-28T05:30:45.735Z,1000.40
2018-07-28T05:31:45.766Z,1000.40
2018-07-28T05:32:45.791Z,1000.47
2018-07-28T05:33:45.814Z,1000.50
2018-07-28T05:34:45.838Z,1000.47
2018-07-28T05:35:45.868Z,1000.50
2018-07-28T05:36:45.893Z,1000.45
2018-07-28T05:37:45.917Z,1000.43
2018-07-28T05:38:45.945Z,1000.47
2018-07-28T05:39:45.974Z,1000.47
2018-07-28T05:40:45.997Z,1000.49
2018-07-28T05:41:46.024Z,1000.47
2018-07-28T05:42:46.051Z,1000.45
2018-07-28T05:43:46.076Z,1000.46
2018-07-28T05:44:46.101Z,1000.45
2018-07-28T05:45:46.125Z,1000.40
2018-07-28T05:46:46.154Z,1000.42
2018-07-28T05:47:46.179Z,1000.46
2018-07-28T05:48:46.203Z,1000.47
2018-07-28T05:49:46.232Z,1000.51
2018-07-28T05:50:46.261Z,1000.44
2018-07-28T05:51:46.282Z,1000.39
2018-07-28T05:52:46.312Z,1000.34
2018-07-28T05:53:46.333Z,1000.38
2018-07-28T05:54:46.359Z,1000.36
2018-07-28T05:55:46.388Z,1000.43
2018-07-28T05:56:46.414Z,1000.46
2018-07-28T05:57:46.437Z,1000.50
2018-07-28T05:58:46.468Z,1000.48
2018-07-28T05:59:46.491Z,1000.49
2018-07-28T06:00:46.516Z,1000.51
2018-07-28T06:01:46.545Z,1000.49
2018-07-28T06:02:46.625Z,1000.46
2018-07-28T06:03:46.596Z,1000.47
2018-07-28T06:04:46.622Z,1000.43
2018-07-28T06:05:46.651Z,1000.42
2018-07-28T06:06:46.675Z,1000.36
2018-07-28T06:07:46.702Z,1000.34
2018-07-28T06:08:46.730Z,1000.27
2018-07-28T06:09:46.758Z,1000.30
2018-07-28T06:10:46.837Z,1000.32
2018-07-28T06:11:46.812Z,1000.32
2018-07-28T06:12:46.838Z,1000.40
2018-07-28T06:13:46.865Z,1000.44
2018-07-28T06:14:46.894Z,1000.39
2018-07-28T06:15:46.918Z,1000.39
2018-07-28T06:16:46.944Z,1000.37
2018-07-28T06:17:46.969Z,1000.38
2018-07-28T06:18:46.996Z,1000.37
2018-07-28T06:19:47.028Z,1000.39
2018-07-28T06:20:47.051Z,1000.38
2018-07-28T06:21:47.079Z,1000.38
2018-07-28T06:22:47.103Z,1000.35
2018-07-28T06:23:47.132Z,1000.41
2018-07-28T06:24:47.158Z,1000.41
2018-07-28T06:25:47.191Z,1000.45
2018-07-28T06:26:47.213Z,1000.46
2018-07-28T06:27:47.238Z,1000.47
2018-07-28T06:28:47.268Z,1000.48
2018-07-28T06:29:47.294Z,1000.47
2018-07-28T06:30:47.320Z,1000.51
2018-07-28T06:31:47.429Z,1000.49
2018-07-28T06:32:47.375Z,1000.50
2018-07-28T06:33:47.404Z,1000.51
2018-07-28T06:34:47.432Z,1000.49
2018-07-28T06:35:47.458Z,1000.45
2018-07-28T06:36:47.488Z,1000.45
2018-07-28T06:37:47.510Z,1000.46
2018-07-28T06:38:47.544Z,1000.40
2018-07-28T06:39:47.567Z,1000.38
2018-07-28T06:40:47.592Z,1000.38
2018-07-28T06:41:47.622Z,1000.38
2018-07-28T06:42:47.649Z,1000.42
2018-07-28T06:43:47.677Z,1000.44
2018-07-28T06:44:47.706Z,1000.47
2018-07-28T06:45:47.728Z,1000.46
2018-07-28T06:46:47.757Z,1000.45
2018-07-28T06:47:47.783Z,1000.43
2018-07-28T06:48:47.811Z,1000.40
2018-07-28T06:49:47.841Z,1000.34
2018-07-28T06:50:47.871Z,1000.35
2018-07-28T06:51:47.894Z,1000.40
2018-07-28T06:52:47.918Z,1000.39
2018-07-28T06:53:48.065Z,1000.39
2018-07-28T06:54:47.977Z,1000.39
2018-07-28T06:55:48.004Z,1000.42
2018-07-28T06:56:48.031Z,1000.42
2018-07-28T06:57:48.056Z,1000.42
2018-07-28T06:58:48.084Z,1000.43
2018-07-28T06:59:48.112Z,1000.43
2018-07-28T07:00:48.139Z,1000.44
2018-07-28T07:01:48.167Z,1000.42
2018-07-28T07:02:48.194Z,1000.44
2018-07-28T07:03:48.222Z,1000.38
2018-07-28T07:04:48.293Z,1000.42
2018-07-28T07:05:48.276Z,1000.42
2018-07-28T07:06:48.307Z,1000.39
2018-07-28T07:07:48.331Z,1000.39
2018-07-28T07:08:48.356Z,1000.39
2018-07-28T07:09:48.386Z,1000.40
2018-07-28T07:10:48.411Z,1000.49
2018-07-28T07:11:48.439Z,1000.55
2018-07-28T07:12:48.467Z,1000.59
2018-07-28T07:13:48.493Z,1000.60
2018-07-28T07:14:48.523Z,1000.62
2018-07-28T07:15:48.549Z,1000.53
2018-07-28T07:16:48.576Z,1000.53
2018-07-28T07:17:48.605Z,1000.58
2018-07-28T07:18:48.631Z,1000.57
2018-07-28T07:19:48.662Z,1000.54
2018-07-28T07:20:48.688Z,1000.53
2018-07-28T07:21:48.719Z,1000.57
2018-07-28T07:22:48.745Z,1000.58
2018-07-28T07:23:48.770Z,1000.61
2018-07-28T07:24:48.817Z,1000.68
2018-07-28T07:25:48.828Z,1000.82
2018-07-28T07:26:48.856Z,1001.07
2018-07-28T07:27:48.881Z,1001.31
2018-07-28T07:28:48.909Z,1001.48
2018-07-28T07:29:48.939Z,1001.54
2018-07-28T07:30:48.966Z,1001.46
2018-07-28T07:31:48.994Z,1001.28
2018-07-28T07:32:49.026Z,1001.22
2018-07-28T07:33:49.053Z,1001.31
2018-07-28T07:34:49.082Z,1001.49
2018-07-28T07:35:49.109Z,1001.55
2018-07-28T07:36:49.135Z,1001.54
2018-07-28T07:37:49.163Z,1001.39
2018-07-28T07:38:49.192Z,1001.38
2018-07-28T07:39:49.223Z,1001.45
2018-07-28T07:40:49.252Z,1001.55
2018-07-28T07:41:49.380Z,1001.58
2018-07-28T07:42:49.305Z,1001.50
2018-07-28T07:43:49.335Z,1001.40
2018-07-28T07:44:49.364Z,1001.51
2018-07-28T07:45:49.394Z,1001.69
2018-07-28T07:46:49.438Z,1001.69
2018-07-28T07:47:49.448Z,1001.63
2018-07-28T07:48:49.478Z,1001.48
2018-07-28T07:49:49.505Z,1001.31
2018-07-28T07:50:49.533Z,1001.45
2018-07-28T07:51:49.564Z,1001.71
2018-07-28T07:52:49.590Z,1001.68
2018-07-28T07:53:49.625Z,1001.59
2018-07-28T07:54:49.649Z,1001.49
2018-07-28T07:55:49.679Z,1001.62
2018-07-28T07:56:49.705Z,1001.64
2018-07-28T07:57:49.735Z,1001.64
2018-07-28T07:58:49.763Z,1001.64
2018-07-28T07:59:49.795Z,1001.73
2018-07-28T08:00:49.820Z,1001.70
2018-07-28T08:01:49.856Z,1001.71
2018-07-28T08:02:49.878Z,1001.75
2018-07-28T08:03:49.907Z,1001.75
2018-07-28T08:04:49.947Z,1001.67
2018-07-28T08:05:49.964Z,1001.67
2018-07-28T08:06:49.997Z,1001.65
2018-07-28T08:07:50.031Z,1001.58
2018-07-28T08:08:50.054Z,1001.62
2018-07-28T08:09:50.080Z,1001.68
2018-07-28T08:10:50.109Z,1001.62
2018-07-28T08:11:50.140Z,1001.61
2018-07-28T08:12:50.169Z,1001.59
2018-07-28T08:13:50.195Z,1001.61
2018-07-28T08:14:50.227Z,1001.57
2018-07-28T08:15:50.260Z,1001.56
2018-07-28T08:16:50.285Z,1001.59
2018-07-28T08:17:50.311Z,1001.53
2018-07-28T08:18:50.342Z,1001.50
2018-07-28T08:19:50.369Z,1001.45
2018-07-28T08:20:50.411Z,1001.45
2018-07-28T08:21:50.432Z,1001.42
2018-07-28T08:22:50.462Z,1001.45
2018-07-28T08:23:50.486Z,1001.49
2018-07-28T08:24:50.512Z,1001.53
2018-07-28T08:25:50.543Z,1001.57
2018-07-28T08:26:50.681Z,1001.57
2018-07-28T08:27:50.599Z,1001.56
2018-07-28T08:28:50.631Z,1001.54
2018-07-28T08:29:50.663Z,1001.56
2018-07-28T08:30:50.686Z,1001.57
2018-07-28T08:31:50.718Z,1001.58
2018-07-28T08:32:50.743Z,1001.57
2018-07-28T08:33:50.773Z,1001.57
2018-07-28T08:34:50.801Z,1001.58
2018-07-28T08:35:50.834Z,1001.61
2018-07-28T08:36:50.864Z,1001.65
2018-07-28T08:37:50.893Z,1001.57
2018-07-28T08:38:50.921Z,1001.64
2018-07-28T08:39:50.993Z,1001.58
2018-07-28T08:40:50.978Z,1001.55
2018-07-28T08:41:51.008Z,1001.62
2018-07-28T08:42:51.037Z,1001.59
2018-07-28T08:43:51.064Z,1001.57
2018-07-28T08:44:51.094Z,1001.60
2018-07-28T08:45:51.120Z,1001.59
2018-07-28T08:46:51.151Z,1001.61
2018-07-28T08:47:51.178Z,1001.60
2018-07-28T08:48:51.264Z,1001.62
2018-07-28T08:49:51.235Z,1001.59
2018-07-28T08:50:51.265Z,1001.57
2018-07-28T08:51:51.294Z,1001.58
2018-07-28T08:52:51.322Z,1001.60
2018-07-28T08:53:51.353Z,1001.64
2018-07-28T08:54:51.379Z,1001.74
2018-07-28T08:55:51.411Z,1001.72
2018-07-28T08:56:51.436Z,1001.73
2018-07-28T08:57:51.470Z,1001.75
2018-07-28T08:58:51.493Z,1001.79
2018-07-28T08:59:51.526Z,1001.78
2018-07-28T09:00:51.550Z,1001.79
2018-07-28T09:01:51.580Z,1001.81
2018-07-28T09:02:51.610Z,1001.83
2018-07-28T09:03:51.636Z,1001.86
2018-07-28T09:04:51.667Z,1001.81
2018-07-28T09:05:51.737Z,1001.80
2018-07-28T09:06:51.721Z,1001.76
2018-07-28T09:07:51.750Z,1001.72
2018-07-28T09:08:51.779Z,1001.66
2018-07-28T09:09:51.807Z,1001.58
2018-07-28T09:10:51.836Z,1001.58
2018-07-28T09:11:51.862Z,1001.53
2018-07-28T09:12:51.890Z,1001.49
2018-07-28T09:13:51.918Z,1001.44
2018-07-28T09:14:51.945Z,1001.39
2018-07-28T09:15:51.974Z,1001.41
2018-07-28T09:16:52.004Z,1001.36
2018-07-28T09:17:52.076Z,1001.34
2018-07-28T09:18:52.061Z,1001.36
2018-07-28T09:19:52.088Z,1001.42
2018-07-28T09:20:52.114Z,1001.50
2018-07-28T09:21:52.143Z,1001.56
2018-07-28T09:22:52.173Z,1001.63
2018-07-28T09:23:52.201Z,1001.61
2018-07-28T09:24:52.223Z,1001.66
2018-07-28T09:25:52.255Z,1001.68
2018-07-28T09:26:52.284Z,1001.71
2018-07-28T09:27:52.311Z,1001.74
2018-07-28T09:28:52.336Z,1001.72
2018-07-28T09:29:52.370Z,1001.75
2018-07-28T09:30:52.395Z,1001.74
2018-07-28T09:31:52.421Z,1001.76
2018-07-28T09:32:52.451Z,1001.81
2018-07-28T09:33:52.479Z,1001.83
2018-07-28T09:34:52.507Z,1001.85
2018-07-28T09:35:52.533Z,1001.85
2018-07-28T09:36:52.599Z,1001.80
2018-07-28T09:37:52.589Z,1001.77
2018-07-28T09:38:52.617Z,1001.74
2018-07-28T09:39:52.647Z,1001.74
2018-07-28T09:40:52.724Z,1001.73
2018-07-28T09:41:52.703Z,1001.74
2018-07-28T09:42:52.732Z,1001.72
2018-07-28T09:43:52.759Z,1001.73
2018-07-28T09:44:52.787Z,1001.78
2018-07-28T09:45:52.821Z,1001.79
2018-07-28T09:46:52.896Z,1001.87
2018-07-28T09:47:52.873Z,1001.93
2018-07-28T09:48:52.897Z,1001.96
2018-07-28T09:49:52.929Z,1002.03
2018-07-28T09:50:52.956Z,1002.09
2018-07-28T09:51:52.983Z,1002.16
2018-07-28T09:52:53.010Z,1002.18
2018-07-28T09:53:53.038Z,1002.25
2018-07-28T09:54:53.066Z,1002.26
2018-07-28T09:55:53.101Z,1002.32
2018-07-28T09:56:53.127Z,1002.38
2018-07-28T09:57:53.152Z,1002.42
2018-07-28T09:58:53.184Z,1002.47
2018-07-28T09:59:53.209Z,1002.48
2018-07-28T10:00:53.236Z,1002.46
2018-07-28T10:01:53.264Z,1002.48
2018-07-28T10:02:53.290Z,1002.47
2018-07-28T10:03:53.318Z,1002.47
2018-07-28T10:04:53.348Z,1002.48
2018-07-28T10:05:53.373Z,1002.46
2018-07-28T10:06:53.401Z,1002.49
2018-07-28T10:07:53.432Z,1002.47
2018-07-28T10:08:53.458Z,1002.51
2018-07-28T10:09:53.489Z,1002.49
2018-07-28T10:10:53.513Z,1002.44
2018-07-28T10:11:53.543Z,1002.49
2018-07-28T10:12:53.574Z,1002.51
2018-07-28T10:13:53.596Z,1002.53
2018-07-28T10:14:53.627Z,1002.55
2018-07-28T10:15:53.653Z,1002.54
2018-07-28T10:16:53.678Z,1002.53
2018-07-28T10:17:53.708Z,1002.58
2018-07-28T10:18:53.733Z,1002.61
2018-07-28T10:19:53.761Z,1002.64
2018-07-28T10:20:53.792Z,1002.65
2018-07-28T10:21:53.819Z,1002.64
2018-07-28T10:22:53.864Z,1002.63
2018-07-28T10:23:53.872Z,1002.66
2018-07-28T10:24:53.900Z,1002.67
2018-07-28T10:25:53.926Z,1002.76
2018-07-28T10:26:53.957Z,1002.74
2018-07-28T10:27:53.982Z,1002.72
2018-07-28T10:28:54.008Z,1002.70
2018-07-28T10:29:54.036Z,1002.65
2018-07-28T10:30:54.066Z,1002.68
2018-07-28T10:31:54.094Z,1002.67
2018-07-28T10:32:54.119Z,1002.62
2018-07-28T10:33:54.146Z,1002.61
2018-07-28T10:34:54.175Z,1002.67
2018-07-28T10:35:54.200Z,1002.67
2018-07-28T10:36:54.233Z,1002.70
2018-07-28T10:37:54.257Z,1002.71
2018-07-28T10:38:54.284Z,1002.69
2018-07-28T10:39:54.309Z,1002.67
2018-07-28T10:40:54.337Z,1002.69
2018-07-28T10:41:54.362Z,1002.76
2018-07-28T10:42:54.391Z,1002.79
2018-07-28T10:43:54.420Z,1002.79
2018-07-28T10:44:54.445Z,1002.82
2018-07-28T10:45:54.472Z,1002.81
2018-07-28T10:46:54.500Z,1002.86
2018-07-28T10:47:54.528Z,1002.90
2018-07-28T10:48:54.550Z,1002.91
2018-07-28T10:49:54.581Z,1002.91
2018-07-28T10:50:54.608Z,1002.88
2018-07-28T10:51:54.647Z,1002.88
2018-07-28T10:52:54.658Z,1002.82
2018-07-28T10:53:54.687Z,1002.81
2018-07-28T10:54:54.714Z,1002.83
2018-07-28T10:55:54.744Z,1002.88
2018-07-28T10:56:54.772Z,1002.93
2018-07-28T10:57:54.794Z,1002.93
2018-07-28T10:58:54.825Z,1002.97
2018-07-28T10:59:54.873Z,1002.99
2018-07-28T11:00:54.876Z,1003.01
2018-07-28T11:01:54.906Z,1002.99
2018-07-28T11:02:54.933Z,1002.98
2018-07-28T11:03:54.961Z,1002.96
2018-07-28T11:04:54.990Z,1002.95
2018-07-28T11:05:55.016Z,1002.96
2018-07-28T11:06:55.040Z,1002.99
2018-07-28T11:07:55.071Z,1002.94
2018-07-28T11:08:55.099Z,1002.95
2018-07-28T11:09:55.123Z,1002.93
2018-07-28T11:10:55.148Z,1002.95
2018-07-28T11:11:55.180Z,1002.92
2018-07-28T11:12:55.206Z,1002.88
2018-07-28T11:13:55.231Z,1002.85
2018-07-28T11:14:55.262Z,1002.83
2018-07-28T11:15:55.286Z,1002.83
2018-07-28T11:16:55.313Z,1002.84
2018-07-28T11:17:55.346Z,1002.84
2018-07-28T11:18:55.415Z,1002.86
2018-07-28T11:19:55.397Z,1002.85
2018-07-28T11:20:55.427Z,1002.83
2018-07-28T11:21:55.453Z,1002.79
2018-07-28T11:22:55.486Z,1002.83
2018-07-28T11:23:55.509Z,1002.79
2018-07-28T11:24:55.535Z,1002.75
2018-07-28T11:25:55.572Z,1002.78
2018-07-28T11:26:55.596Z,1002.76
2018-07-28T11:27:55.622Z,1002.80
2018-07-28T11:28:55.649Z,1002.77
2018-07-28T11:29:55.676Z,1002.77
2018-07-28T11:30:55.703Z,1002.79
2018-07-28T11:31:55.789Z,1002.79
2018-07-28T11:32:55.760Z,1002.81
2018-07-28T11:33:55.790Z,1002.77
2018-07-28T11:34:55.819Z,1002.77
2018-07-28T11:35:55.845Z,1002.74
2018-07-28T11:36:55.873Z,1002.72
2018-07-28T11:37:55.956Z,1002.72
2018-07-28T11:38:55.929Z,1002.70
2018-07-28T11:39:55.958Z,1002.69
2018-07-28T11:40:55.988Z,1002.73
2018-07-28T11:41:56.014Z,1002.75
2018-07-28T11:42:56.043Z,1002.75
2018-07-28T11:43:56.074Z,1002.76
2018-07-28T11:44:56.099Z,1002.77
2018-07-28T11:45:56.198Z,1002.71
2018-07-28T11:46:56.162Z,1002.76
2018-07-28T11:47:56.185Z,1002.74
2018-07-28T11:48:56.214Z,1002.76
2018-07-28T11:49:56.241Z,1002.75
2018-07-28T11:50:56.275Z,1002.74
2018-07-28T11:51:56.298Z,1002.77
2018-07-28T11:52:56.326Z,1002.74
2018-07-28T11:53:56.356Z,1002.74
2018-07-28T11:54:56.383Z,1002.77
2018-07-28T11:55:56.412Z,1002.77
2018-07-28T11:56:56.442Z,1002.72
2018-07-28T11:57:56.509Z,1002.71
2018-07-28T11:58:56.497Z,1002.73
2018-07-28T11:59:56.536Z,1002.70
2018-07-28T12:00:56.556Z,1002.68
2018-07-28T12:01:56.582Z,1002.74
2018-07-28T12:02:56.613Z,1002.80
2018-07-28T12:03:56.639Z,1002.77
2018-07-28T12:04:56.671Z,1002.73
2018-07-28T12:05:56.699Z,1002.75